Time;durP1;ratioP1;P1;durP2;ratioP2;P2;SDS_P1;SDS_P2;PMS_P1;PMS_P2;Temp;Humidity;BMP_temperature;BMP_pressure;BME280_temperature;BME280_humidity;BME280_pressure;Samples;Min_cycle;Max_cycle;Signal;HPM_P1;HPM_P2
2023/07/22 00:02:14;;;;;;;2.67;1.27;;;13.70;99.90;;;;;;5066892;28;20267;-78
2023/07/22 00:04:40;;;;;;;4.63;1.60;;;13.70;99.90;;;;;;5052160;28;20247;-78
2023/07/22 00:07:05;;;;;;;2.63;1.50;;;13.70;99.90;;;;;;5053534;28;20181;-80
2023/07/22 00:09:34;;;;;;;2.80;1.07;;;13.70;99.90;;;;;;5072774;28;20189;-77
2023/07/22 00:12:00;;;;;;;2.83;1.40;;;13.70;99.90;;;;;;5072787;28;20205;-78
2023/07/22 00:14:25;;;;;;;2.87;1.53;;;13.80;99.90;;;;;;5072979;28;20447;-78
2023/07/22 00:16:51;;;;;;;4.13;1.30;;;13.80;99.90;;;;;;5074070;28;20735;-77
2023/07/22 00:19:16;;;;;;;4.23;1.40;;;13.70;99.90;;;;;;5074418;28;20197;-78
2023/07/22 00:21:42;;;;;;;2.80;1.53;;;13.70;99.90;;;;;;5073780;28;20710;-78
2023/07/22 00:24:08;;;;;;;11.60;2.30;;;13.70;99.90;;;;;;5072947;28;20201;-77
2023/07/22 00:26:33;;;;;;;3.43;1.70;;;13.80;99.90;;;;;;5055389;28;20234;-77
2023/07/22 00:28:59;;;;;;;1.90;1.20;;;13.80;99.90;;;;;;5059672;28;20188;-77
2023/07/22 00:31:25;;;;;;;1.60;0.80;;;13.90;99.90;;;;;;5054308;28;20223;-77
2023/07/22 00:33:50;;;;;;;2.77;1.60;;;13.90;99.90;;;;;;5072549;28;20205;-78
2023/07/22 00:36:16;;;;;;;5.10;1.30;;;14.00;99.90;;;;;;5073795;28;20234;-77
2023/07/22 00:38:41;;;;;;;2.20;1.13;;;14.00;99.90;;;;;;5073911;28;20240;-78
2023/07/22 00:41:07;;;;;;;2.93;1.33;;;14.10;99.90;;;;;;5073810;28;20185;-78
2023/07/22 00:43:33;;;;;;;4.03;1.57;;;14.10;99.90;;;;;;5061320;28;20213;-78
2023/07/22 00:45:59;;;;;;;2.50;1.37;;;14.00;99.90;;;;;;5057836;28;20211;-77
2023/07/22 00:48:27;;;;;;;2.67;1.63;;;14.00;99.90;;;;;;5093171;28;20179;-79
2023/07/22 00:50:53;;;;;;;3.03;1.20;;;14.10;99.90;;;;;;5097402;28;20427;-80
2023/07/22 00:53:19;;;;;;;3.03;1.53;;;14.10;99.90;;;;;;5084777;28;20502;-79
2023/07/22 00:55:45;;;;;;;2.73;1.37;;;14.10;99.90;;;;;;5080178;28;20219;-80
2023/07/22 00:58:11;;;;;;;9.40;1.70;;;14.10;99.90;;;;;;5082059;28;20432;-78
2023/07/22 01:00:36;;;;;;;3.97;1.27;;;14.00;99.90;;;;;;5061905;28;20923;-78
2023/07/22 01:03:03;;;;;;;2.27;0.90;;;13.90;99.90;;;;;;5050673;28;20259;-78
2023/07/22 01:05:30;;;;;;;2.53;1.27;;;13.90;99.90;;;;;;5060282;28;20209;-78
2023/07/22 01:07:56;;;;;;;2.63;1.60;;;14.00;99.90;;;;;;5052850;28;20948;-78
2023/07/22 01:10:22;;;;;;;3.40;1.70;;;13.90;99.90;;;;;;5070793;28;20509;-79
2023/07/22 01:12:48;;;;;;;4.30;1.87;;;13.90;99.90;;;;;;5065102;28;20969;-78
2023/07/22 01:15:14;;;;;;;4.17;1.80;;;13.90;99.90;;;;;;5064702;28;20496;-76
2023/07/22 01:17:40;;;;;;;5.10;1.90;;;15.70;99.90;;;;;;5071191;28;20177;-77
2023/07/22 01:20:06;;;;;;;3.10;1.57;;;13.90;99.90;;;;;;5053701;28;20526;-78
2023/07/22 01:22:33;;;;;;;3.20;0.90;;;13.80;99.90;;;;;;5071704;28;20242;-78
2023/07/22 01:25:00;;;;;;;2.57;1.23;;;13.80;99.90;;;;;;5071040;28;20881;-78
2023/07/22 01:27:26;;;;;;;3.30;1.80;;;13.80;99.90;;;;;;5071043;28;20480;-78
2023/07/22 01:29:52;;;;;;;3.23;1.60;;;13.80;99.90;;;;;;5071329;28;20827;-78
2023/07/22 01:32:18;;;;;;;3.77;1.47;;;13.70;99.90;;;;;;5065244;28;20225;-79
2023/07/22 01:34:43;;;;;;;3.07;1.53;;;13.70;99.90;;;;;;5065153;28;20716;-78
2023/07/22 01:37:09;;;;;;;3.67;1.77;;;13.70;99.90;;;;;;5053331;28;20503;-78
2023/07/22 01:39:35;;;;;;;3.20;1.10;;;13.70;99.90;;;;;;5071265;28;20189;-78
2023/07/22 01:42:02;;;;;;;2.47;1.30;;;13.70;99.90;;;;;;5069902;28;20185;-78
2023/07/22 01:44:27;;;;;;;3.97;1.37;;;13.70;99.90;;;;;;5071257;28;20458;-78
2023/07/22 01:46:53;;;;;;;3.27;1.40;;;13.70;99.90;;;;;;5071121;28;20424;-77
2023/07/22 01:49:19;;;;;;;2.17;1.30;;;13.60;99.90;;;;;;5071503;28;20187;-78
2023/07/22 01:51:45;;;;;;;3.30;1.60;;;13.50;99.90;;;;;;5071208;28;20645;-78
2023/07/22 01:54:12;;;;;;;2.80;1.30;;;13.50;99.90;;;;;;5049888;28;20232;-78
2023/07/22 01:56:38;;;;;;;3.50;1.50;;;13.40;99.90;;;;;;5071486;28;20743;-78
2023/07/22 01:59:04;;;;;;;3.37;1.30;;;13.40;99.90;;;;;;5053352;28;20626;-78
2023/07/22 02:01:29;;;;;;;2.37;1.23;;;13.30;99.90;;;;;;5070938;28;20954;-78
2023/07/22 02:03:55;;;;;;;2.43;1.50;;;13.30;99.90;;;;;;5050451;28;20215;-78
2023/07/22 02:06:21;;;;;;;5.40;1.27;;;13.30;99.90;;;;;;5070539;28;20238;-78
2023/07/22 02:08:47;;;;;;;5.53;1.27;;;13.30;99.90;;;;;;5070845;28;20852;-78
2023/07/22 02:11:12;;;;;;;2.67;1.33;;;13.30;99.90;;;;;;5070856;28;20688;-78
2023/07/22 02:13:38;;;;;;;2.03;1.13;;;13.20;99.90;;;;;;5053074;28;20195;-78
2023/07/22 02:16:04;;;;;;;4.27;1.77;;;13.20;99.90;;;;;;5071218;28;20185;-78
2023/07/22 02:18:30;;;;;;;2.80;1.37;;;13.10;99.90;;;;;;5070957;28;20219;-78
2023/07/22 02:20:56;;;;;;;8.00;1.73;;;13.10;99.90;;;;;;5070774;28;20788;-78
2023/07/22 02:23:23;;;;;;;3.20;1.70;;;13.20;99.90;;;;;;5070546;28;20642;-77
2023/07/22 02:25:50;;;;;;;2.53;1.53;;;13.10;99.90;;;;;;5070542;28;20447;-78
2023/07/22 02:28:15;;;;;;;6.60;2.07;;;13.30;99.90;;;;;;5070624;28;20513;-78
2023/07/22 02:30:41;;;;;;;3.37;1.50;;;13.30;99.90;;;;;;5070901;28;20974;-77
2023/07/22 02:33:08;;;;;;;3.10;1.47;;;13.30;99.90;;;;;;5070983;28;20758;-78
2023/07/22 02:35:34;;;;;;;2.60;1.43;;;13.40;99.90;;;;;;5052765;28;20212;-79
2023/07/22 02:37:59;;;;;;;19.30;1.90;;;13.30;99.90;;;;;;5070786;28;21040;-78
2023/07/22 02:40:25;;;;;;;3.73;1.50;;;13.30;99.90;;;;;;5070595;28;20186;-77
2023/07/22 02:42:51;;;;;;;3.10;1.47;;;13.40;99.90;;;;;;5070111;28;20204;-78
2023/07/22 02:45:16;;;;;;;3.00;1.30;;;13.50;99.90;;;;;;5058185;28;20221;-77
2023/07/22 02:47:42;;;;;;;3.13;1.63;;;13.40;99.90;;;;;;5070778;28;20189;-78
2023/07/22 02:50:08;;;;;;;3.87;1.60;;;13.40;99.90;;;;;;5071321;28;20184;-78
2023/07/22 02:52:35;;;;;;;2.30;1.57;;;13.40;99.90;;;;;;5052902;28;20208;-78
2023/07/22 02:55:12;;;;;;;5.53;2.00;;;13.40;99.90;;;;;;5074379;28;20435;-79
2023/07/22 02:57:39;;;;;;;2.00;1.10;;;13.40;99.90;;;;;;5074575;28;20687;-78
2023/07/22 03:00:07;;;;;;;3.33;1.60;;;13.40;99.90;;;;;;5056982;28;20839;-78
2023/07/22 03:02:33;;;;;;;2.40;1.43;;;13.30;99.90;;;;;;5056571;28;20784;-78
2023/07/22 03:04:59;;;;;;;2.40;1.23;;;13.20;99.90;;;;;;5055737;28;20470;-78
2023/07/22 03:07:26;;;;;;;2.37;1.10;;;13.10;99.90;;;;;;5065915;28;20565;-78
2023/07/22 03:09:52;;;;;;;3.40;1.97;;;13.10;99.90;;;;;;5069830;28;20181;-78
2023/07/22 03:12:17;;;;;;;3.93;1.80;;;13.10;99.90;;;;;;5060344;28;21148;-78
2023/07/22 03:14:43;;;;;;;2.47;1.40;;;13.00;99.90;;;;;;5066567;28;20300;-78
2023/07/22 03:17:09;;;;;;;4.10;1.67;;;13.00;99.90;;;;;;5069419;28;20664;-78
2023/07/22 03:19:35;;;;;;;2.10;1.10;;;13.00;99.90;;;;;;5075317;28;20169;-80
2023/07/22 03:22:01;;;;;;;4.20;1.67;;;13.00;99.90;;;;;;5065392;28;20216;-80
2023/07/22 03:24:26;;;;;;;2.40;1.30;;;13.00;99.90;;;;;;5076051;28;20467;-79
2023/07/22 03:26:52;;;;;;;4.43;2.03;;;13.00;99.90;;;;;;5077827;28;20234;-81
2023/07/22 03:29:18;;;;;;;4.13;1.90;;;13.00;99.90;;;;;;5057600;28;20196;-78
2023/07/22 03:31:43;;;;;;;3.50;1.37;;;13.00;99.90;;;;;;5060345;28;20213;-78
2023/07/22 03:34:09;;;;;;;4.17;2.10;;;13.00;99.90;;;;;;5064718;28;20205;-76
2023/07/22 03:36:34;;;;;;;2.40;1.30;;;13.00;99.90;;;;;;5068948;28;20235;-79
2023/07/22 03:39:00;;;;;;;2.17;1.20;;;13.00;99.90;;;;;;5074248;28;20189;-78
2023/07/22 03:41:26;;;;;;;2.57;1.37;;;13.00;99.90;;;;;;5074381;28;20647;-79
2023/07/22 03:43:51;;;;;;;3.90;1.93;;;13.00;99.90;;;;;;5073166;28;20993;-78
2023/07/22 03:46:17;;;;;;;2.10;1.20;;;13.00;99.90;;;;;;5063839;28;20185;-79
2023/07/22 03:48:43;;;;;;;3.20;1.77;;;13.00;99.90;;;;;;5056175;28;20665;-79
2023/07/22 03:51:08;;;;;;;2.23;1.10;;;13.10;99.90;;;;;;5074053;28;20208;-78
2023/07/22 03:53:34;;;;;;;2.57;1.03;;;13.10;99.90;;;;;;5073580;28;20185;-79
2023/07/22 03:56:00;;;;;;;3.60;1.47;;;13.10;99.90;;;;;;5073464;28;20181;-76
2023/07/22 03:58:25;;;;;;;2.87;1.50;;;13.10;99.90;;;;;;5048910;28;20749;-79
2023/07/22 04:00:51;;;;;;;7.10;2.00;;;13.00;99.90;;;;;;5062913;28;20180;-78
2023/07/22 04:03:16;;;;;;;2.60;1.50;;;12.90;99.90;;;;;;5055117;28;20699;-76
2023/07/22 04:05:42;;;;;;;2.23;1.10;;;12.80;99.90;;;;;;5053788;28;20226;-79
2023/07/22 04:08:07;;;;;;;3.63;1.53;;;12.80;99.90;;;;;;5055267;28;20232;-79
2023/07/22 04:10:33;;;;;;;2.03;1.30;;;12.80;99.90;;;;;;5072757;28;20600;-78
2023/07/22 04:12:59;;;;;;;2.67;1.20;;;12.70;99.90;;;;;;5073282;28;20203;-79
2023/07/22 04:15:24;;;;;;;4.57;2.03;;;12.80;99.90;;;;;;5054937;28;20208;-79
2023/07/22 04:17:50;;;;;;;4.13;1.70;;;12.70;99.90;;;;;;5073204;28;20181;-79
2023/07/22 04:20:17;;;;;;;2.03;1.20;;;12.80;99.90;;;;;;5073244;28;20564;-79
2023/07/22 04:22:43;;;;;;;2.67;1.50;;;12.70;99.90;;;;;;5073562;28;20181;-79
2023/07/22 04:25:09;;;;;;;5.80;1.93;;;12.80;99.90;;;;;;5070984;28;20530;-78
2023/07/22 04:27:35;;;;;;;3.20;1.47;;;12.80;99.90;;;;;;5061805;28;20204;-79
2023/07/22 04:30:01;;;;;;;4.17;1.77;;;12.80;99.90;;;;;;5071208;28;20423;-78
2023/07/22 04:32:27;;;;;;;3.67;1.43;;;12.80;99.90;;;;;;5061139;28;20209;-79
2023/07/22 04:34:52;;;;;;;5.50;1.20;;;12.80;99.90;;;;;;5071284;28;20627;-78
2023/07/22 04:37:18;;;;;;;3.40;0.97;;;12.80;99.90;;;;;;5073161;28;20787;-78
2023/07/22 04:39:49;;;;;;;4.10;1.40;;;12.80;99.90;;;;;;5072545;28;20203;-78
2023/07/22 04:42:14;;;;;;;2.67;1.20;;;12.80;99.90;;;;;;5054898;28;20181;-78
2023/07/22 04:44:40;;;;;;;4.17;1.40;;;12.80;99.90;;;;;;5054045;28;20505;-79
2023/07/22 04:47:06;;;;;;;2.13;1.17;;;12.90;99.90;;;;;;5054875;28;20275;-79
2023/07/22 04:49:32;;;;;;;3.40;1.77;;;12.80;99.90;;;;;;5073736;28;20455;-79
2023/07/22 04:51:57;;;;;;;3.03;1.37;;;12.90;99.90;;;;;;5074052;28;20794;-79
2023/07/22 04:54:23;;;;;;;2.50;1.20;;;13.00;99.90;;;;;;5073713;28;20205;-79
2023/07/22 04:56:48;;;;;;;4.30;1.93;;;13.10;99.90;;;;;;5074425;28;20565;-79
2023/07/22 04:59:14;;;;;;;3.87;1.60;;;13.20;99.90;;;;;;5066390;28;20669;-78
2023/07/22 05:01:40;;;;;;;5.57;1.60;;;13.30;99.90;;;;;;5055076;28;20267;-79
2023/07/22 05:04:06;;;;;;;4.83;1.07;;;13.40;99.90;;;;;;5073101;28;20212;-79
2023/07/22 05:06:31;;;;;;;3.23;1.60;;;13.40;99.90;;;;;;5075121;28;20238;-78
2023/07/22 05:08:57;;;;;;;2.97;1.27;;;13.40;99.90;;;;;;5056657;28;20569;-77
2023/07/22 05:11:23;;;;;;;2.90;1.63;;;13.50;99.90;;;;;;5074515;28;20197;-79
2023/07/22 05:13:49;;;;;;;3.70;1.30;;;13.60;99.90;;;;;;5057196;28;20216;-79
2023/07/22 05:16:14;;;;;;;4.97;1.77;;;13.60;99.90;;;;;;5072549;28;20185;-79
2023/07/22 05:18:40;;;;;;;2.20;1.00;;;13.60;99.90;;;;;;5058955;28;20212;-80
2023/07/22 05:21:06;;;;;;;5.87;1.93;;;13.60;99.90;;;;;;5071762;28;20180;-79
2023/07/22 05:23:32;;;;;;;5.43;2.17;;;13.80;99.90;;;;;;5053960;28;20230;-79
2023/07/22 05:25:57;;;;;;;3.00;1.37;;;13.80;99.90;;;;;;5072918;28;20906;-79
2023/07/22 05:28:23;;;;;;;2.57;1.30;;;13.80;99.90;;;;;;5073671;28;20668;-79
2023/07/22 05:30:48;;;;;;;3.90;1.90;;;13.90;99.90;;;;;;5075078;28;20181;-79
2023/07/22 05:33:14;;;;;;;3.93;1.33;;;14.00;99.90;;;;;;5084783;28;20205;-80
2023/07/22 05:35:39;;;;;;;2.40;1.53;;;14.10;99.90;;;;;;5097304;28;20191;-80
2023/07/22 05:38:05;;;;;;;3.43;1.57;;;14.20;99.90;;;;;;5097373;28;20211;-81
2023/07/22 05:40:31;;;;;;;2.57;1.30;;;14.20;99.90;;;;;;5089232;28;20174;-81
2023/07/22 05:42:57;;;;;;;3.40;1.43;;;14.30;99.90;;;;;;5085601;28;20498;-79
2023/07/22 05:45:23;;;;;;;2.43;1.17;;;14.40;99.90;;;;;;5064702;28;20483;-80
2023/07/22 05:47:48;;;;;;;3.57;1.70;;;14.40;99.90;;;;;;5065212;28;20216;-79
2023/07/22 05:50:14;;;;;;;2.67;1.40;;;14.50;99.90;;;;;;5080093;28;20189;-79
2023/07/22 05:52:40;;;;;;;3.33;1.47;;;14.70;99.90;;;;;;5060154;28;20620;-80
2023/07/22 05:55:05;;;;;;;3.00;1.50;;;14.60;99.90;;;;;;5062007;28;20193;-79
2023/07/22 05:57:31;;;;;;;2.43;1.30;;;14.70;99.90;;;;;;5072882;28;20214;-79
2023/07/22 05:59:57;;;;;;;2.17;1.23;;;14.70;99.90;;;;;;5064051;28;20212;-78
2023/07/22 06:02:22;;;;;;;3.37;1.07;;;14.80;99.90;;;;;;5057408;28;20182;-79
2023/07/22 06:04:48;;;;;;;3.33;1.33;;;14.80;99.90;;;;;;5071067;28;20240;-79
2023/07/22 06:07:13;;;;;;;2.90;1.30;;;14.90;99.90;;;;;;5052594;28;20184;-79
2023/07/22 06:09:39;;;;;;;5.27;1.67;;;14.90;99.90;;;;;;5071118;28;20546;-78
2023/07/22 06:12:05;;;;;;;2.37;1.17;;;15.00;99.90;;;;;;5070421;28;20598;-79
2023/07/22 06:14:31;;;;;;;4.37;1.60;;;15.00;99.90;;;;;;5041851;28;20198;-79
2023/07/22 06:16:57;;;;;;;5.33;1.77;;;15.20;99.90;;;;;;5057021;28;20184;-79
2023/07/22 06:19:23;;;;;;;3.20;1.77;;;15.10;99.90;;;;;;5052773;28;20181;-79
2023/07/22 06:21:49;;;;;;;3.33;1.10;;;15.40;99.90;;;;;;5070751;28;20200;-79
2023/07/22 06:24:15;;;;;;;4.20;1.90;;;15.40;99.90;;;;;;5070392;28;20907;-79
2023/07/22 06:26:40;;;;;;;3.17;1.23;;;15.50;99.90;;;;;;5071145;28;20462;-79
2023/07/22 06:29:06;;;;;;;3.97;1.50;;;15.60;99.90;;;;;;5073552;28;20208;-79
2023/07/22 06:31:32;;;;;;;3.40;1.37;;;15.70;99.90;;;;;;5056003;28;20240;-79
2023/07/22 06:33:59;;;;;;;5.27;1.23;;;15.80;99.90;;;;;;5074474;28;20649;-79
2023/07/22 06:36:25;;;;;;;2.93;1.53;;;15.80;99.90;;;;;;5074835;28;20259;-79
2023/07/22 06:38:51;;;;;;;2.40;1.33;;;15.90;99.90;;;;;;5074553;28;20968;-79
2023/07/22 06:41:17;;;;;;;2.80;1.20;;;16.00;99.90;;;;;;5074176;28;20431;-79
2023/07/22 06:43:43;;;;;;;4.23;1.20;;;16.10;99.90;;;;;;5073444;28;20199;-79
2023/07/22 06:46:09;;;;;;;5.20;1.90;;;16.20;99.90;;;;;;5074462;28;20420;-78
2023/07/22 06:48:34;;;;;;;3.87;1.07;;;16.30;99.90;;;;;;5074093;28;20181;-78
2023/07/22 06:51:00;;;;;;;2.33;0.93;;;16.50;99.90;;;;;;5056358;28;20184;-79
2023/07/22 06:53:25;;;;;;;2.00;1.00;;;16.60;99.90;;;;;;5073992;28;20185;-75
2023/07/22 06:55:52;;;;;;;2.50;1.47;;;16.70;99.90;;;;;;5073536;28;20288;-79
2023/07/22 06:58:19;;;;;;;2.00;1.07;;;16.80;99.90;;;;;;5074544;28;20190;-78
2023/07/22 07:00:44;;;;;;;2.67;1.40;;;17.00;99.90;;;;;;5066096;28;20466;-80
2023/07/22 07:03:11;;;;;;;2.40;1.27;;;17.10;99.90;;;;;;5055816;28;20419;-78
2023/07/22 07:05:36;;;;;;;2.00;1.30;;;17.20;99.90;;;;;;5066846;28;20217;-80
2023/07/22 07:08:03;;;;;;;3.37;1.37;;;17.50;99.90;;;;;;5056150;28;20480;-80
2023/07/22 07:10:29;;;;;;;1.50;0.80;;;17.70;99.90;;;;;;5053231;28;20672;-79
2023/07/22 07:12:54;;;;;;;3.37;1.43;;;17.90;99.90;;;;;;5060506;28;20454;-79
2023/07/22 07:15:20;;;;;;;2.17;1.37;;;18.10;99.90;;;;;;5072436;28;20224;-77
2023/07/22 07:17:46;;;;;;;3.43;1.30;;;18.30;99.90;;;;;;5073400;28;20208;-79
2023/07/22 07:20:14;;;;;;;4.10;1.70;;;18.50;99.90;;;;;;5073684;28;20181;-80
2023/07/22 07:22:39;;;;;;;1.93;1.20;;;18.60;99.90;;;;;;5072935;28;20744;-79
2023/07/22 07:25:05;;;;;;;2.73;1.37;;;18.70;99.90;;;;;;5072512;28;20510;-77
2023/07/22 07:27:31;;;;;;;1.93;0.87;;;18.90;99.90;;;;;;5072851;28;20216;-78
2023/07/22 07:29:56;;;;;;;1.80;0.93;;;19.30;99.90;;;;;;5076127;28;20427;-80
2023/07/22 07:32:23;;;;;;;5.60;1.00;;;19.60;98.50;;;;;;5058938;28;20247;-81
2023/07/22 07:34:49;;;;;;;3.77;1.67;;;19.80;98.10;;;;;;5076147;28;20197;-80
2023/07/22 07:37:15;;;;;;;3.93;1.47;;;20.00;96.90;;;;;;5078044;28;20419;-80
2023/07/22 07:39:40;;;;;;;2.40;1.03;;;20.40;96.90;;;;;;5076271;28;20253;-80
2023/07/22 07:42:06;;;;;;;2.80;1.40;;;20.90;96.20;;;;;;5076347;28;20184;-82
2023/07/22 07:44:31;;;;;;;2.60;1.50;;;21.40;94.80;;;;;;5075352;28;20718;-80
2023/07/22 07:46:57;;;;;;;2.20;0.97;;;22.60;93.00;;;;;;5074790;28;20276;-81
2023/07/22 07:49:23;;;;;;;3.90;1.30;;;22.80;93.10;;;;;;5075373;28;20207;-82
2023/07/22 07:51:48;;;;;;;3.37;1.33;;;23.50;91.50;;;;;;5075828;28;20607;-81
2023/07/22 07:54:14;;;;;;;4.13;1.47;;;24.50;89.50;;;;;;5075953;28;20271;-80
2023/07/22 07:56:40;;;;;;;2.23;0.93;;;24.40;87.90;;;;;;5056793;28;20214;-82
2023/07/22 07:59:08;;;;;;;4.00;1.13;;;24.90;85.20;;;;;;5058848;28;20185;-81
2023/07/22 08:01:35;;;;;;;4.30;1.55;;;25.50;83.40;;;;;;5068139;28;20623;-81
2023/07/22 08:04:01;;;;;;;3.25;1.10;;;25.70;80.70;;;;;;5054957;28;20209;-81
2023/07/22 08:06:26;;;;;;;2.00;0.90;;;25.80;80.90;;;;;;5068593;28;20192;-79
2023/07/22 08:08:52;;;;;;;4.38;1.20;;;26.70;77.90;;;;;;5072811;28;20302;-81
2023/07/22 08:11:18;;;;;;;6.30;1.77;;;26.80;76.90;;;;;;5074104;28;20206;-81
2023/07/22 08:13:44;;;;;;;3.60;1.73;;;26.70;77.50;;;;;;5074091;28;20184;-80
2023/07/22 08:16:11;;;;;;;6.63;1.35;;;26.30;77.10;;;;;;5073462;28;20441;-82
2023/07/22 08:18:37;;;;;;;3.53;1.17;;;26.20;76.20;;;;;;5072509;28;20184;-82
2023/07/22 08:21:05;;;;;;;2.38;1.00;;;26.20;73.00;;;;;;5046302;28;20185;-81
2023/07/22 08:23:30;;;;;;;3.35;1.45;;;26.30;72.70;;;;;;5067760;28;20185;-82
2023/07/22 08:25:56;;;;;;;3.75;1.25;;;26.30;72.80;;;;;;5061153;28;20194;-82
2023/07/22 08:28:22;;;;;;;2.30;0.95;;;26.20;72.10;;;;;;5055195;28;20208;-82
2023/07/22 08:30:48;;;;;;;2.58;1.30;;;26.60;70.50;;;;;;5072843;28;20637;-80
2023/07/22 08:33:15;;;;;;;3.45;1.30;;;26.50;71.90;;;;;;5057972;28;20278;-79
2023/07/22 08:35:41;;;;;;;2.50;1.25;;;26.80;70.60;;;;;;5060327;28;20232;-80
2023/07/22 08:38:08;;;;;;;1.65;0.88;;;27.30;68.10;;;;;;5070483;28;20173;-81
2023/07/22 08:40:34;;;;;;;2.65;0.98;;;27.20;65.40;;;;;;5063470;28;20198;-80
2023/07/22 08:43:01;;;;;;;1.85;0.98;;;27.40;65.30;;;;;;5064885;28;20601;-79
2023/07/22 08:45:30;;;;;;;2.13;1.00;;;27.90;60.30;;;;;;5066334;28;20215;-80
2023/07/22 08:47:58;;;;;;;1.88;0.90;;;27.80;61.50;;;;;;5070350;28;20185;-81
2023/07/22 08:50:29;;;;;;;2.70;1.08;;;27.40;61.30;;;;;;5059493;28;20174;-80
2023/07/22 08:52:54;;;;;;;1.95;0.90;;;26.70;59.60;;;;;;5067379;28;20263;-80
2023/07/22 08:55:21;;;;;;;5.45;1.25;;;26.30;62.50;;;;;;5061108;28;20665;-79
2023/07/22 08:57:48;;;;;;;2.57;1.10;;;25.80;63.30;;;;;;5062621;28;20192;-80
2023/07/22 09:00:16;;;;;;;2.20;0.90;;;25.00;61.30;;;;;;5072997;28;20242;-81
2023/07/22 09:02:42;;;;;;;1.87;0.87;;;24.60;62.80;;;;;;5068854;28;20208;-82
2023/07/22 09:05:09;;;;;;;1.97;0.87;;;24.00;63.90;;;;;;5072773;28;20488;-80
2023/07/22 09:07:35;;;;;;;2.10;1.00;;;23.60;64.60;;;;;;5053781;28;20441;-80
2023/07/22 09:10:02;;;;;;;2.00;1.00;;;23.10;67.00;;;;;;5072755;28;20438;-80
2023/07/22 09:12:28;;;;;;;2.30;1.10;;;22.60;68.10;;;;;;5062251;28;20834;-81
2023/07/22 09:14:55;;;;;;;2.27;1.00;;;22.40;68.70;;;;;;5073346;28;20469;-80
2023/07/22 09:17:21;;;;;;;1.57;0.80;;;22.30;68.00;;;;;;5074224;28;20468;-80
2023/07/22 09:19:54;;;;;;;7.00;1.17;;;22.10;68.70;;;;;;5063069;28;20503;-80
2023/07/22 09:22:26;;;;;;;1.80;0.87;;;22.80;69.40;;;;;;5055459;28;20581;-78
2023/07/22 09:24:52;;;;;;;2.00;0.87;;;23.00;70.50;;;;;;5072201;28;20921;-77
2023/07/22 09:27:34;;;;;;;1.47;0.53;;;22.80;71.60;;;;;;5071943;28;20484;-78
2023/07/22 09:29:59;;;;;;;2.27;1.07;;;22.80;70.70;;;;;;5073068;28;20423;-78
2023/07/22 09:32:37;;;;;;;2.63;0.90;;;22.60;72.10;;;;;;5072774;28;20454;-79
2023/07/22 09:35:07;;;;;;;2.60;1.40;;;22.40;70.00;;;;;;5054189;28;20208;-79
2023/07/22 09:37:39;;;;;;;2.03;0.80;;;22.20;72.20;;;;;;5062501;28;20452;-78
2023/07/22 09:40:20;;;;;;;1.97;0.83;;;22.20;70.50;;;;;;5071520;28;20427;-78
2023/07/22 09:42:48;;;;;;;2.00;0.80;;;22.10;72.20;;;;;;5062913;28;20600;-78
2023/07/22 09:45:14;;;;;;;1.60;0.70;;;22.20;71.10;;;;;;5070515;28;20439;-78
2023/07/22 09:47:41;;;;;;;3.20;0.93;;;22.00;70.80;;;;;;5072544;28;20787;-78
2023/07/22 09:50:11;;;;;;;1.73;0.80;;;22.00;72.00;;;;;;5073333;28;20419;-78
2023/07/22 09:52:42;;;;;;;2.37;0.70;;;22.10;71.50;;;;;;5073767;28;20462;-78
2023/07/22 09:55:09;;;;;;;1.83;0.73;;;21.90;72.50;;;;;;5074093;28;20435;-77
2023/07/22 09:57:36;;;;;;;2.10;0.97;;;21.90;72.70;;;;;;5078125;28;20874;-78
2023/07/22 10:00:02;;;;;;;2.33;1.10;;;22.10;72.40;;;;;;5088685;28;20434;-81
2023/07/22 10:02:29;;;;;;;4.23;1.30;;;22.70;73.50;;;;;;5090169;28;20406;-81
2023/07/22 10:04:59;;;;;;;1.73;0.70;;;23.40;71.50;;;;;;5085209;28;20211;-82
2023/07/22 10:07:25;;;;;;;1.97;1.03;;;24.20;70.70;;;;;;5086672;28;20418;-80
2023/07/22 10:09:54;;;;;;;4.23;1.03;;;24.90;69.50;;;;;;5069435;28;20497;-78
2023/07/22 10:12:20;;;;;;;1.90;1.00;;;25.50;67.10;;;;;;5078408;28;20222;-79
2023/07/22 10:14:46;;;;;;;2.33;1.10;;;25.80;66.30;;;;;;5071575;28;20680;-80
2023/07/22 10:17:13;;;;;;;5.87;1.13;;;25.40;66.30;;;;;;5074942;28;20673;-79
2023/07/22 10:19:39;;;;;;;3.70;1.63;;;25.10;68.50;;;;;;5057775;28;20180;-79
2023/07/22 10:22:05;;;;;;;4.13;1.10;;;25.20;64.10;;;;;;5057221;28;20182;-80
2023/07/22 10:24:32;;;;;;;3.53;1.20;;;25.30;62.90;;;;;;5079098;28;20578;-78
2023/07/22 10:26:57;;;;;;;1.70;0.80;;;25.00;64.90;;;;;;5077949;28;20185;-78
2023/07/22 10:29:26;;;;;;;2.63;1.00;;;25.00;63.60;;;;;;5077320;28;20422;-80
2023/07/22 10:31:54;;;;;;;2.47;1.33;;;24.90;65.90;;;;;;5062561;28;20208;-79
2023/07/22 10:34:23;;;;;;;2.83;1.40;;;24.80;62.80;;;;;;5077117;28;20477;-79
2023/07/22 10:36:49;;;;;;;2.20;1.03;;;24.90;62.90;;;;;;5080436;28;20410;-80
2023/07/22 10:39:28;;;;;;;3.03;1.20;;;25.10;61.00;;;;;;5077999;28;20425;-79
2023/07/22 10:42:04;;;;;;;2.53;0.90;;;25.50;60.10;;;;;;5076007;28;20208;-80
2023/07/22 10:44:37;;;;;;;2.00;0.90;;;25.50;59.20;;;;;;5057620;28;20796;-81
2023/07/22 10:47:04;;;;;;;2.13;1.03;;;25.10;60.90;;;;;;5050749;28;20472;-79
2023/07/22 10:49:49;;;;;;;2.90;0.97;;;24.70;64.00;;;;;;5078287;28;20795;-81
2023/07/22 10:52:42;;;;;;;4.07;1.20;;;24.50;64.50;;;;;;5077911;28;20553;-81
2023/07/22 10:55:16;;;;;;;2.00;0.80;;;24.30;64.60;;;;;;5046857;28;20438;-80
2023/07/22 10:57:53;;;;;;;7.53;1.00;;;24.00;67.30;;;;;;5076153;28;21027;-80
2023/07/22 11:00:20;;;;;;;3.60;1.07;;;23.60;69.50;;;;;;5053262;28;20478;-80
2023/07/22 11:03:07;;;;;;;3.00;1.60;;;23.40;69.50;;;;;;5074415;28;20429;-80
2023/07/22 11:05:55;;;;;;;3.30;0.90;;;23.10;70.70;;;;;;5057002;28;20449;-80
2023/07/22 11:08:40;;;;;;;4.17;1.10;;;22.80;72.20;;;;;;5067889;28;20843;-81
2023/07/22 11:11:06;;;;;;;2.00;0.73;;;23.30;71.60;;;;;;5079423;28;20519;-80
2023/07/22 11:13:37;;;;;;;2.13;1.20;;;23.70;71.80;;;;;;5077516;28;20428;-81
2023/07/22 11:16:03;;;;;;;2.23;0.97;;;24.20;71.40;;;;;;5076217;28;20176;-80
2023/07/22 11:18:42;;;;;;;2.40;1.00;;;24.20;70.60;;;;;;5084449;28;20968;-80
2023/07/22 11:21:11;;;;;;;2.37;1.13;;;24.30;71.80;;;;;;5079496;28;20577;-81
2023/07/22 11:23:37;;;;;;;1.80;0.80;;;24.10;69.80;;;;;;5074717;28;20422;-79
2023/07/22 11:26:03;;;;;;;3.03;1.10;;;24.40;71.60;;;;;;5075952;28;20473;-79
2023/07/22 11:28:30;;;;;;;2.63;1.33;;;24.20;70.20;;;;;;5075486;28;20212;-80
2023/07/22 11:30:56;;;;;;;2.17;0.90;;;24.20;71.20;;;;;;5073779;28;20777;-78
2023/07/22 11:33:22;;;;;;;3.30;1.67;;;24.30;69.50;;;;;;5054312;28;20639;-77
2023/07/22 11:35:47;;;;;;;4.20;1.50;;;24.60;67.80;;;;;;5073259;28;20204;-78
2023/07/22 11:38:13;;;;;;;2.20;1.00;;;24.70;70.00;;;;;;5073372;28;20694;-79
2023/07/22 11:40:38;;;;;;;2.43;1.00;;;25.00;68.70;;;;;;5072909;28;20196;-78
2023/07/22 11:43:04;;;;;;;2.33;1.10;;;25.10;67.50;;;;;;5072893;28;20711;-78
2023/07/22 11:45:31;;;;;;;3.23;1.20;;;24.90;66.20;;;;;;5071545;28;20291;-78
2023/07/22 11:47:56;;;;;;;2.73;1.53;;;24.40;67.60;;;;;;5072641;28;20193;-78
2023/07/22 11:50:33;;;;;;;2.53;1.20;;;24.10;69.20;;;;;;5073134;28;20423;-78
2023/07/22 11:52:59;;;;;;;2.33;1.10;;;24.20;67.40;;;;;;5072742;28;20208;-78
2023/07/22 11:55:25;;;;;;;3.93;1.33;;;24.00;68.20;;;;;;5072828;28;20434;-79
2023/07/22 11:57:54;;;;;;;3.47;1.40;;;23.80;70.90;;;;;;5068216;28;20209;-78
2023/07/22 12:00:20;;;;;;;1.80;0.90;;;24.10;68.50;;;;;;5064165;28;20532;-80
2023/07/22 12:02:46;;;;;;;2.30;1.00;;;24.50;67.80;;;;;;5058039;28;20419;-79
2023/07/22 12:05:20;;;;;;;3.50;1.10;;;25.00;67.30;;;;;;5078495;28;20422;-79
2023/07/22 12:07:46;;;;;;;2.40;0.97;;;25.20;64.50;;;;;;5072195;28;20181;-78
2023/07/22 12:10:11;;;;;;;2.53;1.10;;;25.00;64.70;;;;;;5070374;28;20415;-79
2023/07/22 12:12:41;;;;;;;1.80;1.10;;;25.30;65.50;;;;;;5077395;28;20700;-78
2023/07/22 12:15:13;;;;;;;2.93;1.30;;;25.50;64.10;;;;;;5073539;28;20697;-79
2023/07/22 12:18:00;;;;;;;2.70;1.40;;;25.40;63.70;;;;;;5056822;28;20438;-79
2023/07/22 12:20:27;;;;;;;3.70;1.10;;;25.30;64.60;;;;;;5068467;28;20442;-79
2023/07/22 12:22:54;;;;;;;2.53;1.23;;;24.80;65.80;;;;;;5056470;28;20430;-80
2023/07/22 12:25:19;;;;;;;4.63;1.17;;;25.00;64.10;;;;;;5071884;28;20488;-79
2023/07/22 12:27:45;;;;;;;2.53;0.93;;;25.30;64.90;;;;;;5055025;28;20419;-78
2023/07/22 12:30:11;;;;;;;2.90;1.57;;;24.90;65.70;;;;;;5073179;28;20185;-79
2023/07/22 12:32:37;;;;;;;3.03;1.00;;;25.00;65.40;;;;;;5072801;28;20200;-79
2023/07/22 12:35:03;;;;;;;2.43;1.07;;;24.80;65.70;;;;;;5075718;28;20196;-80
2023/07/22 12:37:29;;;;;;;2.10;1.10;;;24.50;66.60;;;;;;5072447;28;20422;-79
2023/07/22 12:39:56;;;;;;;3.10;1.20;;;24.60;66.60;;;;;;5073390;28;20194;-79
2023/07/22 12:42:21;;;;;;;4.60;1.60;;;24.70;68.10;;;;;;5051321;28;20439;-80
2023/07/22 12:44:47;;;;;;;2.50;1.10;;;25.10;65.40;;;;;;5068473;28;20454;-79
2023/07/22 12:47:12;;;;;;;1.73;0.90;;;25.00;64.00;;;;;;5072568;28;20184;-77